Time;durP1;ratioP1;P1;durP2;ratioP2;P2;SDS_P1;SDS_P2;PMS_P1;PMS_P2;Temp;Humidity;BMP_temperature;BMP_pressure;BME280_temperature;BME280_humidity;BME280_pressure;Samples;Min_cycle;Max_cycle;Signal;HPM_P1;HPM_P2
2021/10/22 00:01:21;;;;;;;8.35;4.25;;;7.40;56.30;;;;;;5056232;28;20048;-72
2021/10/22 00:03:52;;;;;;;7.35;4.88;;;7.40;56.20;;;;;;5047813;28;20037;-71
2021/10/22 00:06:24;;;;;;;7.75;4.32;;;7.30;55.90;;;;;;5055257;28;20072;-71
2021/10/22 00:08:56;;;;;;;10.35;4.35;;;7.20;56.10;;;;;;5061565;28;20259;-71
2021/10/22 00:11:26;;;;;;;6.35;4.20;;;7.20;56.10;;;;;;5054076;28;20510;-70
2021/10/22 00:14:01;;;;;;;8.55;4.47;;;7.20;56.10;;;;;;5055480;28;20045;-70
2021/10/22 00:16:34;;;;;;;7.75;4.07;;;7.20;56.10;;;;;;5059215;28;20036;-70
2021/10/22 00:19:04;;;;;;;6.50;3.78;;;7.20;56.20;;;;;;5057789;28;20416;-70
2021/10/22 00:21:32;;;;;;;8.73;3.80;;;7.00;55.90;;;;;;5059199;28;20056;-70
2021/10/22 00:24:03;;;;;;;5.28;3.92;;;7.00;56.10;;;;;;5057281;28;20510;-71
2021/10/22 00:26:35;;;;;;;5.90;3.42;;;7.00;56.00;;;;;;5050766;28;20060;-71
2021/10/22 00:29:05;;;;;;;6.75;3.55;;;7.00;55.90;;;;;;5057146;28;20407;-70
2021/10/22 00:31:36;;;;;;;7.03;3.78;;;7.00;56.10;;;;;;5056887;28;20048;-70
2021/10/22 00:34:04;;;;;;;4.63;3.35;;;6.90;55.80;;;;;;5056894;28;20136;-70
2021/10/22 00:36:36;;;;;;;4.70;3.00;;;6.90;55.10;;;;;;5056735;28;20561;-71
2021/10/22 00:39:05;;;;;;;8.30;3.65;;;6.90;55.90;;;;;;5054221;28;20661;-70
2021/10/22 00:41:36;;;;;;;7.15;3.17;;;6.90;55.40;;;;;;5059051;28;20045;-70
2021/10/22 00:44:06;;;;;;;5.15;3.10;;;6.90;55.80;;;;;;5051756;28;20041;-70
2021/10/22 00:46:38;;;;;;;7.07;3.50;;;6.90;55.60;;;;;;5055423;28;20056;-70
2021/10/22 00:49:09;;;;;;;4.50;2.90;;;6.90;55.80;;;;;;5059461;28;20045;-71
2021/10/22 00:51:40;;;;;;;9.63;3.75;;;7.00;56.00;;;;;;5057383;28;20094;-71
2021/10/22 00:54:10;;;;;;;8.48;3.88;;;6.90;55.30;;;;;;5057297;28;20143;-70
2021/10/22 00:56:38;;;;;;;5.80;3.80;;;6.90;55.70;;;;;;5060741;28;20068;-70
2021/10/22 00:59:13;;;;;;;6.78;3.55;;;6.90;54.90;;;;;;5056042;28;20557;-70
2021/10/22 01:01:47;;;;;;;6.53;2.95;;;6.90;54.30;;;;;;5051358;28;20131;-69
2021/10/22 01:04:16;;;;;;;6.22;3.55;;;6.90;53.90;;;;;;5053580;28;20091;-69
2021/10/22 01:06:48;;;;;;;5.35;3.30;;;6.90;54.50;;;;;;5057467;28;20037;-70
2021/10/22 01:09:17;;;;;;;5.28;3.42;;;6.90;54.30;;;;;;5058201;28;20052;-70
2021/10/22 01:11:46;;;;;;;7.22;3.55;;;6.90;54.40;;;;;;5058793;28;20119;-70
2021/10/22 01:14:16;;;;;;;4.45;3.42;;;6.90;54.90;;;;;;5050491;28;20124;-70
2021/10/22 01:16:46;;;;;;;8.52;4.07;;;6.80;54.40;;;;;;5056072;28;20441;-70
2021/10/22 01:19:16;;;;;;;5.35;3.53;;;6.80;55.60;;;;;;5055882;28;20045;-69
2021/10/22 01:21:48;;;;;;;7.38;3.38;;;6.80;55.50;;;;;;5054460;28;20202;-70
2021/10/22 01:24:17;;;;;;;8.02;4.20;;;6.80;54.70;;;;;;5057526;28;20555;-70
2021/10/22 01:26:47;;;;;;;9.82;4.03;;;6.70;54.40;;;;;;5053979;28;20102;-70
2021/10/22 01:29:18;;;;;;;6.72;4.05;;;6.70;54.90;;;;;;5053552;28;20077;-69
2021/10/22 01:31:46;;;;;;;8.25;4.00;;;6.70;55.10;;;;;;5053541;28;20051;-70
2021/10/22 01:34:17;;;;;;;6.70;4.18;;;6.80;55.70;;;;;;5052615;28;20036;-70
2021/10/22 01:36:47;;;;;;;7.03;4.05;;;6.70;55.30;;;;;;5056261;28;20048;-69
2021/10/22 01:39:17;;;;;;;7.00;5.13;;;6.70;55.60;;;;;;5056973;28;20051;-71
2021/10/22 01:41:46;;;;;;;8.57;5.03;;;6.70;55.60;;;;;;5051947;28;20059;-70
2021/10/22 01:44:22;;;;;;;10.40;4.93;;;6.70;55.70;;;;;;5052931;28;20345;-69
2021/10/22 01:46:52;;;;;;;5.95;4.88;;;6.60;55.60;;;;;;5057291;28;20044;-70
2021/10/22 01:49:23;;;;;;;9.73;5.70;;;6.60;55.60;;;;;;5049729;28;20133;-70
2021/10/22 01:51:52;;;;;;;9.18;6.03;;;6.60;55.70;;;;;;5056277;28;20123;-70
2021/10/22 01:54:24;;;;;;;8.57;6.18;;;6.50;55.50;;;;;;5057964;28;20072;-70
2021/10/22 01:56:54;;;;;;;10.05;5.63;;;6.50;55.50;;;;;;5052071;28;20806;-70
2021/10/22 01:59:23;;;;;;;12.07;6.40;;;6.50;55.60;;;;;;5054778;28;20254;-70
2021/10/22 02:01:58;;;;;;;7.72;4.95;;;6.50;55.80;;;;;;5056444;28;20444;-71
2021/10/22 02:04:26;;;;;;;8.57;4.65;;;6.50;55.80;;;;;;5051601;28;20044;-70
2021/10/22 02:07:01;;;;;;;6.65;5.03;;;6.50;56.00;;;;;;5058677;28;20083;-70
2021/10/22 02:09:32;;;;;;;6.63;4.15;;;6.50;56.10;;;;;;5051752;28;20041;-70
2021/10/22 02:12:01;;;;;;;8.55;4.65;;;6.50;56.00;;;;;;5056728;28;20040;-70
2021/10/22 02:14:30;;;;;;;9.15;4.30;;;6.50;56.10;;;;;;5050477;28;20049;-70
2021/10/22 02:16:59;;;;;;;5.88;4.78;;;6.40;56.10;;;;;;5056357;28;20048;-69
2021/10/22 02:19:28;;;;;;;9.13;4.75;;;6.30;55.60;;;;;;5054468;28;20053;-70
2021/10/22 02:22:03;;;;;;;8.98;4.90;;;6.30;55.80;;;;;;5057316;28;20044;-70
2021/10/22 02:24:32;;;;;;;10.52;5.40;;;6.30;56.00;;;;;;5053018;28;20500;-70
2021/10/22 02:27:00;;;;;;;9.77;5.07;;;6.30;56.20;;;;;;5050688;28;20052;-70
2021/10/22 02:29:28;;;;;;;7.22;4.32;;;6.30;56.00;;;;;;5050770;28;20049;-69
2021/10/22 02:31:58;;;;;;;6.72;4.25;;;6.30;56.10;;;;;;5052103;28;20552;-70
2021/10/22 02:34:26;;;;;;;7.53;4.60;;;6.30;56.30;;;;;;5050789;28;20564;-72
2021/10/22 02:36:54;;;;;;;6.47;4.40;;;6.30;56.20;;;;;;5059292;28;20273;-70
2021/10/22 02:39:24;;;;;;;8.15;4.57;;;6.30;56.20;;;;;;5050685;28;20248;-71
2021/10/22 02:41:52;;;;;;;10.45;4.85;;;6.20;56.00;;;;;;5055147;28;20575;-71
2021/10/22 02:44:23;;;;;;;7.32;4.95;;;6.20;56.20;;;;;;5058937;28;20118;-70
2021/10/22 02:46:55;;;;;;;8.88;4.80;;;6.20;56.20;;;;;;5058562;28;20048;-71
2021/10/22 02:49:25;;;;;;;8.75;5.20;;;6.10;56.20;;;;;;5059709;28;20068;-71
2021/10/22 02:51:55;;;;;;;7.63;4.70;;;6.20;56.40;;;;;;5060073;28;20493;-71
2021/10/22 02:54:25;;;;;;;9.30;4.78;;;6.20;56.60;;;;;;5056941;28;20144;-71
2021/10/22 02:56:52;;;;;;;8.93;4.00;;;6.20;56.50;;;;;;5065244;28;20571;-71
2021/10/22 02:59:21;;;;;;;6.57;4.15;;;6.10;56.30;;;;;;5059808;28;20093;-71
2021/10/22 03:01:52;;;;;;;8.65;3.90;;;6.00;56.20;;;;;;5060797;28;20048;-71
2021/10/22 03:04:20;;;;;;;8.40;3.92;;;5.90;55.90;;;;;;5056378;28;20058;-71
2021/10/22 03:06:48;;;;;;;8.60;3.67;;;5.90;56.30;;;;;;5063708;28;20072;-71
2021/10/22 03:09:18;;;;;;;10.45;3.97;;;5.90;55.70;;;;;;5062898;28;20060;-71
2021/10/22 03:11:48;;;;;;;6.18;3.40;;;5.80;56.00;;;;;;5066323;28;20048;-71
2021/10/22 03:14:16;;;;;;;11.10;3.50;;;5.80;56.20;;;;;;5061100;28;20109;-71
2021/10/22 03:16:44;;;;;;;7.80;3.63;;;5.90;56.30;;;;;;5060709;28;20120;-70
2021/10/22 03:19:14;;;;;;;9.38;3.80;;;5.80;55.70;;;;;;5063008;28;20115;-69
2021/10/22 03:21:47;;;;;;;10.73;3.95;;;5.90;56.30;;;;;;5066097;28;20036;-69
2021/10/22 03:24:15;;;;;;;6.80;2.95;;;5.90;55.80;;;;;;5060017;28;20148;-70
2021/10/22 03:26:43;;;;;;;6.53;3.58;;;5.80;55.50;;;;;;5057134;28;20188;-69
2021/10/22 03:29:16;;;;;;;9.32;3.28;;;5.80;55.40;;;;;;5017948;28;20045;-70
2021/10/22 03:31:45;;;;;;;9.93;3.47;;;5.90;55.80;;;;;;5057944;28;20045;-69
2021/10/22 03:34:13;;;;;;;11.45;3.10;;;5.90;55.40;;;;;;5055304;28;20051;-69
2021/10/22 03:36:41;;;;;;;11.02;3.50;;;5.90;55.00;;;;;;5058966;28;20040;-71
2021/10/22 03:39:12;;;;;;;15.10;3.33;;;5.90;55.00;;;;;;5065087;28;20048;-71
2021/10/22 03:41:41;;;;;;;9.05;3.03;;;5.90;55.00;;;;;;5061254;28;20041;-71
2021/10/22 03:44:09;;;;;;;11.35;3.22;;;5.80;54.70;;;;;;5063585;28;20054;-70
2021/10/22 03:46:38;;;;;;;12.82;3.53;;;5.80;54.90;;;;;;5065246;28;20488;-70
2021/10/22 03:49:08;;;;;;;6.70;3.05;;;5.80;54.90;;;;;;5059205;28;20047;-70
2021/10/22 03:51:37;;;;;;;16.45;4.47;;;5.70;54.50;;;;;;5055919;28;20055;-70
2021/10/22 03:54:09;;;;;;;7.35;2.88;;;5.70;54.80;;;;;;5053153;28;20601;-70
2021/10/22 03:56:37;;;;;;;5.65;3.15;;;5.70;54.80;;;;;;5051648;28;20048;-69
2021/10/22 03:59:10;;;;;;;10.23;2.83;;;5.60;54.10;;;;;;5049050;28;20053;-70
2021/10/22 04:01:39;;;;;;;12.27;2.88;;;5.50;53.40;;;;;;5057971;28;20067;-70
2021/10/22 04:04:13;;;;;;;13.70;3.10;;;5.50;54.50;;;;;;5061815;28;20068;-70
2021/10/22 04:06:43;;;;;;;9.98;3.20;;;5.60;54.50;;;;;;5061905;28;20037;-70
2021/10/22 04:09:15;;;;;;;11.00;3.80;;;5.50;54.50;;;;;;5061992;28;20048;-70
2021/10/22 04:11:46;;;;;;;7.72;3.47;;;5.50;54.50;;;;;;5060189;28;20055;-70
2021/10/22 04:14:14;;;;;;;8.73;2.85;;;5.50;54.10;;;;;;5064587;28;20164;-70
2021/10/22 04:16:45;;;;;;;8.93;3.28;;;5.40;53.50;;;;;;5056225;28;20045;-70
2021/10/22 04:19:13;;;;;;;9.30;3.30;;;5.50;54.20;;;;;;5061492;28;20051;-70
2021/10/22 04:21:45;;;;;;;10.98;3.25;;;5.60;54.70;;;;;;5061305;28;20072;-70
2021/10/22 04:24:13;;;;;;;9.07;3.25;;;5.60;53.90;;;;;;5061256;28;20094;-70
2021/10/22 04:26:41;;;;;;;10.52;3.22;;;5.70;53.50;;;;;;5058751;28;20115;-70
2021/10/22 04:29:10;;;;;;;10.93;3.35;;;5.70;52.80;;;;;;5060097;28;20056;-70
2021/10/22 04:31:38;;;;;;;12.60;3.10;;;5.70;52.00;;;;;;5061500;28;20072;-70
2021/10/22 04:34:08;;;;;;;8.88;3.75;;;5.70;51.10;;;;;;5060159;28;20060;-70
2021/10/22 04:36:42;;;;;;;8.23;3.17;;;5.80;51.10;;;;;;5063028;28;20522;-70
2021/10/22 04:42:05;;;;;;;7.85;2.80;;;5.70;50.90;;;;;;5062430;28;20369;-70
2021/10/22 04:44:34;;;;;;;8.50;3.83;;;5.60;50.80;;;;;;5059959;28;20501;-70
2021/10/22 04:47:03;;;;;;;13.88;3.30;;;5.70;51.50;;;;;;5058410;28;20068;-70
2021/10/22 04:49:35;;;;;;;10.13;3.22;;;5.70;51.00;;;;;;5061958;28;20488;-70
2021/10/22 04:52:05;;;;;;;8.27;2.92;;;5.60;50.80;;;;;;5061812;28;20076;-70
2021/10/22 04:54:33;;;;;;;10.32;3.22;;;5.60;50.80;;;;;;5042816;28;20131;-70
2021/10/22 04:57:01;;;;;;;8.07;2.72;;;5.60;50.80;;;;;;5060337;28;20131;-70
2021/10/22 04:59:29;;;;;;;8.15;2.97;;;5.60;50.30;;;;;;5063300;28;20045;-70
2021/10/22 05:01:57;;;;;;;11.80;2.72;;;5.60;49.90;;;;;;5057606;28;20044;-69
2021/10/22 05:04:30;;;;;;;6.75;2.83;;;5.60;50.00;;;;;;5060059;28;20504;-69
2021/10/22 05:07:03;;;;;;;6.88;2.80;;;5.50;49.30;;;;;;5056414;28;20504;-69
2021/10/22 05:09:32;;;;;;;8.00;2.75;;;5.50;49.90;;;;;;5055525;28;20037;-69
2021/10/22 05:12:05;;;;;;;6.57;2.55;;;5.60;50.60;;;;;;5061547;28;20544;-70
2021/10/22 05:14:37;;;;;;;8.77;3.78;;;5.50;49.80;;;;;;5055993;28;20058;-69
2021/10/22 05:17:07;;;;;;;10.80;3.42;;;5.50;49.70;;;;;;5056895;28;20456;-69
2021/10/22 05:19:34;;;;;;;8.82;3.45;;;5.50;50.10;;;;;;5054670;28;20057;-70
2021/10/22 05:22:04;;;;;;;6.22;2.63;;;5.50;50.40;;;;;;5056901;28;20106;-69
2021/10/22 05:24:32;;;;;;;9.43;3.22;;;5.40;49.40;;;;;;5054739;28;20585;-69
2021/10/22 05:27:01;;;;;;;7.80;2.70;;;5.40;50.00;;;;;;5056112;28;20413;-69
2021/10/22 05:29:33;;;;;;;8.43;3.03;;;5.40;49.90;;;;;;5057494;28;20216;-69
2021/10/22 05:32:03;;;;;;;11.13;3.83;;;5.40;49.70;;;;;;5056537;28;20040;-70
2021/10/22 05:34:32;;;;;;;8.05;2.70;;;5.30;49.70;;;;;;5054312;28;20507;-70
2021/10/22 05:37:07;;;;;;;10.18;3.65;;;5.30;50.60;;;;;;5054930;28;20040;-70
2021/10/22 05:39:35;;;;;;;10.05;3.80;;;5.30;50.60;;;;;;5053551;28;20080;-70
2021/10/22 05:42:08;;;;;;;7.72;3.67;;;5.30;50.70;;;;;;5053719;28;20504;-70
2021/10/22 05:44:37;;;;;;;11.95;3.83;;;5.30;50.60;;;;;;5056114;28;20051;-70
2021/10/22 05:47:12;;;;;;;10.07;4.20;;;5.20;50.50;;;;;;5058065;28;20052;-68
2021/10/22 05:49:44;;;;;;;9.52;3.45;;;5.20;50.50;;;;;;5063691;28;20137;-69
2021/10/22 05:52:16;;;;;;;8.73;3.08;;;5.20;50.50;;;;;;5057441;28;20131;-69
2021/10/22 05:54:44;;;;;;;9.30;3.10;;;5.20;50.50;;;;;;5062437;28;20048;-69
2021/10/22 05:57:12;;;;;;;10.43;3.95;;;5.20;50.50;;;;;;5061679;28;20876;-69
2021/10/22 05:59:44;;;;;;;9.50;2.47;;;5.20;50.50;;;;;;5053150;28;20756;-69
2021/10/22 06:02:21;;;;;;;11.52;3.22;;;5.20;50.50;;;;;;5059251;28;20040;-69
2021/10/22 06:04:49;;;;;;;9.35;3.63;;;5.30;50.60;;;;;;5064640;28;20068;-69
2021/10/22 06:07:21;;;;;;;12.27;2.80;;;5.30;50.60;;;;;;5057023;28;20068;-69
2021/10/22 06:09:49;;;;;;;11.30;3.53;;;5.30;50.40;;;;;;5059374;28;20045;-69
2021/10/22 06:12:17;;;;;;;5.15;2.55;;;5.30;49.80;;;;;;5075984;28;20416;-69
2021/10/22 06:14:48;;;;;;;8.23;3.58;;;5.40;49.90;;;;;;5053860;28;20037;-70
2021/10/22 06:17:22;;;;;;;12.20;3.30;;;5.40;49.50;;;;;;5057769;28;20048;-69
2021/10/22 06:19:55;;;;;;;7.97;3.13;;;5.40;49.40;;;;;;5060875;28;20297;-70
2021/10/22 06:22:50;;;;;;;7.65;2.92;;;5.40;49.30;;;;;;5056394;28;20056;-70
2021/10/22 06:25:20;;;;;;;8.70;2.90;;;5.50;49.00;;;;;;5048040;28;20045;-70
2021/10/22 06:27:49;;;;;;;10.73;3.33;;;5.60;47.90;;;;;;5052752;28;20385;-69
2021/10/22 06:30:18;;;;;;;11.02;3.90;;;5.70;46.80;;;;;;5044487;28;20516;-70
2021/10/22 06:32:48;;;;;;;10.10;3.20;;;5.70;45.20;;;;;;5049578;28;20056;-70
2021/10/22 06:35:17;;;;;;;10.55;3.67;;;5.70;43.70;;;;;;5058271;28;20051;-69
2021/10/22 06:37:48;;;;;;;7.90;2.85;;;5.70;43.10;;;;;;5064758;28;20048;-68
2021/10/22 06:40:21;;;;;;;9.85;3.42;;;5.80;42.80;;;;;;5049509;28;20052;-70
2021/10/22 06:42:52;;;;;;;8.85;3.00;;;5.80;41.50;;;;;;5050423;28;20063;-69
2021/10/22 06:45:21;;;;;;;10.25;3.65;;;5.80;39.00;;;;;;5049008;28;20248;-71
2021/10/22 06:47:50;;;;;;;9.88;3.33;;;5.80;39.10;;;;;;5053647;28;20041;-69
2021/10/22 06:50:18;;;;;;;13.45;3.88;;;5.80;39.60;;;;;;5049774;28;20148;-70
2021/10/22 06:52:49;;;;;;;13.20;3.70;;;5.80;38.70;;;;;;5046217;28;20052;-69
2021/10/22 06:55:19;;;;;;;13.13;3.22;;;5.90;38.70;;;;;;5045964;28;20132;-70
2021/10/22 06:57:50;;;;;;;12.23;3.25;;;5.90;37.20;;;;;;5048937;28;20035;-71
2021/10/22 07:00:18;;;;;;;13.02;3.10;;;5.90;35.90;;;;;;5045026;28;20125;-69
2021/10/22 07:02:50;;;;;;;9.30;2.95;;;6.00;34.70;;;;;;5051454;28;20475;-69
2021/10/22 07:05:35;;;;;;;13.55;3.15;;;6.00;34.70;;;;;;5048087;28;21287;-70
2021/10/22 07:08:07;;;;;;;8.05;2.65;;;6.10;34.10;;;;;;5043718;28;20111;-70
2021/10/22 07:10:35;;;;;;;9.25;3.00;;;6.10;32.60;;;;;;5046717;28;20052;-70
2021/10/22 07:13:06;;;;;;;11.70;3.13;;;6.20;32.70;;;;;;5055935;28;20510;-70
2021/10/22 07:15:39;;;;;;;12.80;2.88;;;6.20;32.80;;;;;;5051427;28;20053;-70
2021/10/22 07:18:09;;;;;;;9.15;2.78;;;6.40;31.60;;;;;;5055397;28;20055;-70
2021/10/22 07:20:37;;;;;;;11.13;2.35;;;6.30;29.00;;;;;;5045798;28;20060;-70
2021/10/22 07:23:08;;;;;;;9.13;2.65;;;6.30;28.90;;;;;;5039232;28;20099;-69
2021/10/22 07:25:38;;;;;;;7.80;2.30;;;6.40;27.90;;;;;;5049767;28;20152;-71
2021/10/22 07:28:10;;;;;;;8.65;3.03;;;6.50;28.90;;;;;;5050313;28;20123;-70
2021/10/22 07:30:47;;;;;;;11.40;2.83;;;6.60;27.40;;;;;;5047159;28;20102;-70
2021/10/22 07:33:15;;;;;;;12.40;3.20;;;6.70;27.60;;;;;;5046268;28;20123;-69
2021/10/22 07:35:47;;;;;;;8.23;2.70;;;6.80;25.70;;;;;;5043432;28;20048;-69
2021/10/22 07:38:20;;;;;;;10.85;3.10;;;6.80;24.20;;;;;;5042416;28;20053;-69
2021/10/22 07:40:51;;;;;;;7.68;2.22;;;6.90;24.70;;;;;;5053493;28;20049;-69
2021/10/22 07:43:20;;;;;;;10.45;2.40;;;7.00;23.20;;;;;;5048329;28;20163;-69
2021/10/22 07:45:48;;;;;;;9.77;2.90;;;7.10;21.80;;;;;;5051581;28;20045;-69
2021/10/22 07:48:16;;;;;;;9.48;2.30;;;7.20;21.40;;;;;;5046733;28;20037;-70
2021/10/22 07:50:44;;;;;;;8.80;2.42;;;7.20;20.00;;;;;;5046738;28;20056;-69
2021/10/22 07:53:16;;;;;;;8.93;2.08;;;7.30;20.30;;;;;;5048803;28;20162;-70
2021/10/22 07:55:46;;;;;;;15.52;2.42;;;7.30;18.50;;;;;;5047294;28;20057;-70
2021/10/22 07:58:14;;;;;;;12.82;2.35;;;7.50;17.70;;;;;;5047900;28;20048;-71
2021/10/22 08:00:42;;;;;;;8.40;2.35;;;7.50;17.70;;;;;;5048809;28;20083;-70
2021/10/22 08:03:10;;;;;;;12.68;3.05;;;7.40;15.60;;;;;;5046885;28;20072;-70
2021/10/22 08:05:39;;;;;;;6.78;1.90;;;7.50;15.80;;;;;;5047208;28;20056;-69
2021/10/22 08:08:12;;;;;;;9.73;2.53;;;7.60;15.80;;;;;;5047711;28;20102;-70
2021/10/22 08:10:42;;;;;;;9.88;2.95;;;7.60;16.30;;;;;;5045920;28;20053;-70
2021/10/22 08:13:11;;;;;;;6.75;2.22;;;7.50;13.70;;;;;;5048957;28;20057;-70
2021/10/22 08:15:44;;;;;;;;;;;7.60;14.30;;;;;;5044960;28;21709;-70
2021/10/22 08:18:17;;;;;;;8.80;2.78;;;7.70;15.20;;;;;;5046237;28;19936;-70
2021/10/22 08:20:53;;;;;;;8.38;2.65;;;7.60;14.70;;;;;;5048742;28;20248;-70
2021/10/22 08:23:24;;;;;;;12.00;2.50;;;7.60;14.20;;;;;;5051283;28;20040;-70
2021/10/22 08:25:52;;;;;;;9.20;1.95;;;7.90;15.60;;;;;;5049035;28;20130;-70
2021/10/22 08:28:22;;;;;;;11.05;2.45;;;7.80;14.40;;;;;;5052452;28;20033;-69
2021/10/22 08:30:56;;;;;;;10.45;2.60;;;7.60;11.20;;;;;;5050562;28;20206;-70
2021/10/22 08:33:26;;;;;;;12.10;2.30;;;7.80;15.20;;;;;;5053482;28;20120;-69
2021/10/22 08:35:55;;;;;;;14.20;2.58;;;7.80;14.40;;;;;;5048644;28;20106;-70
2021/10/22 08:38:25;;;;;;;8.05;1.80;;;7.80;15.10;;;;;;5053681;28;20127;-70
2021/10/22 08:40:58;;;;;;;8.75;2.42;;;7.70;14.30;;;;;;5056408;28;20043;-70
2021/10/22 08:43:32;;;;;;;10.68;2.58;;;7.80;13.40;;;;;;5052015;28;20094;-69
2021/10/22 08:46:11;;;;;;;6.43;2.15;;;7.80;15.30;;;;;;5051733;28;20515;-69
2021/10/22 08:48:42;;;;;;;10.70;2.80;;;7.60;16.20;;;;;;5050712;28;20128;-70
2021/10/22 08:51:18;;;;;;;10.50;2.80;;;7.70;16.30;;;;;;5050766;28;20051;-69
2021/10/22 08:53:49;;;;;;;5.45;2.05;;;8.00;16.80;;;;;;5052683;28;20051;-69
2021/10/22 08:56:22;;;;;;;11.05;2.53;;;8.20;16.60;;;;;;5049641;28;20527;-69
2021/10/22 08:58:53;;;;;;;11.40;2.97;;;8.10;14.60;;;;;;5053081;28;20049;-70
2021/10/22 09:01:21;;;;;;;9.13;2.10;;;8.30;12.90;;;;;;5053281;28;20041;-70
2021/10/22 09:03:50;;;;;;;6.85;1.80;;;8.20;11.90;;;;;;5051740;28;20048;-69
2021/10/22 09:06:20;;;;;;;7.82;2.40;;;8.30;10.10;;;;;;5047355;28;20049;-70
2021/10/22 09:08:55;;;;;;;11.45;3.22;;;8.30;10.50;;;;;;5048072;28;20041;-70
2021/10/22 09:11:25;;;;;;;8.88;2.45;;;8.50;7.60;;;;;;5049116;28;20092;-70
2021/10/22 09:14:05;;;;;;;12.68;2.60;;;8.60;10.00;;;;;;5053887;28;20116;-69
2021/10/22 09:16:40;;;;;;;12.00;2.90;;;8.70;7.70;;;;;;5048206;28;20037;-69
2021/10/22 09:19:10;;;;;;;13.93;2.20;;;8.70;7.50;;;;;;5048520;28;20068;-69
2021/10/22 09:21:42;;;;;;;13.65;2.85;;;8.70;7.90;;;;;;5053083;28;20052;-70
2021/10/22 09:24:14;;;;;;;10.02;2.83;;;8.80;7.80;;;;;;5052906;28;20090;-69
2021/10/22 09:26:47;;;;;;;9.05;2.30;;;8.60;7.60;;;;;;5050448;28;20047;-69
2021/10/22 09:29:20;;;;;;;14.32;3.25;;;8.90;7.50;;;;;;5052888;28;20055;-70
2021/10/22 09:31:52;;;;;;;10.98;2.78;;;8.90;5.20;;;;;;5051303;28;20063;-70
2021/10/22 09:34:32;;;;;;;9.27;3.47;;;9.10;4.70;;;;;;5048770;28;20054;-69
2021/10/22 09:37:01;;;;;;;7.15;2.15;;;9.30;4.40;;;;;;5050197;28;20124;-70
2021/10/22 09:39:34;;;;;;;14.43;2.63;;;9.20;3.20;;;;;;5051936;28;20044;-69
2021/10/22 09:42:03;;;;;;;7.95;1.98;;;9.40;4.00;;;;;;5049152;28;20165;-69
2021/10/22 09:44:38;;;;;;;12.50;2.65;;;9.20;1.00;;;;;;5046090;28;20557;-69
2021/10/22 09:47:18;;;;;;;9.45;2.45;;;9.40;1.00;;;;;;5040676;28;21322;-69
2021/10/22 09:49:48;;;;;;;9.68;2.20;;;9.70;1.00;;;;;;5039555;28;20049;-70
2021/10/22 09:52:18;;;;;;;5.88;1.60;;;9.40;1.00;;;;;;5051269;28;20084;-67
2021/10/22 09:54:47;;;;;;;11.48;2.15;;;9.20;1.00;;;;;;5041501;28;20135;-69
2021/10/22 09:57:17;;;;;;;6.97;1.80;;;9.40;1.00;;;;;;5042609;28;20053;-70
2021/10/22 09:59:46;;;;;;;8.88;1.50;;;9.20;1.00;;;;;;5040993;28;20075;-70
2021/10/22 10:02:16;;;;;;;6.68;1.38;;;9.50;1.00;;;;;;5041798;28;20088;-70
2021/10/22 10:04:47;;;;;;;7.97;1.63;;;9.70;1.00;;;;;;5043417;28;20053;-69
2021/10/22 10:07:19;;;;;;;10.63;1.48;;;9.90;1.00;;;;;;5042633;28;20685;-69
2021/10/22 10:09:51;;;;;;;9.50;2.25;;;9.80;1.00;;;;;;5042890;28;20044;-69
2021/10/22 10:12:22;;;;;;;6.13;1.50;;;10.00;1.00;;;;;;5042844;28;20282;-69
2021/10/22 10:14:57;;;;;;;9.40;1.90;;;9.80;1.00;;;;;;5043547;28;20044;-69
2021/10/22 10:17:28;;;;;;;8.90;1.40;;;9.60;1.00;;;;;;5039984;28;20555;-68
2021/10/22 10:20:02;;;;;;;11.32;1.80;;;9.80;1.00;;;;;;5041881;28;20052;-69
2021/10/22 10:22:36;;;;;;;9.63;1.58;;;9.60;1.00;;;;;;5043836;28;20040;-68
2021/10/22 10:25:06;;;;;;;6.63;1.50;;;9.70;1.00;;;;;;5041594;28;20465;-68
2021/10/22 10:27:46;;;;;;;5.50;1.48;;;9.80;1.00;;;;;;5053110;28;20493;-69
2021/10/22 10:30:30;;;;;;;4.20;1.27;;;9.60;1.00;;;;;;5051208;28;20570;-69
2021/10/22 10:33:09;;;;;;;10.50;2.72;;;9.80;1.00;;;;;;5050137;28;20045;-69
2021/10/22 10:35:39;;;;;;;13.70;2.05;;;10.00;1.00;;;;;;5048976;28;20143;-68
2021/10/22 10:38:09;;;;;;;9.57;1.65;;;9.90;1.00;;;;;;5052938;28;20126;-68
2021/10/22 10:40:37;;;;;;;9.00;1.52;;;10.20;1.00;;;;;;5035802;28;20049;-68
2021/10/22 10:43:20;;;;;;;6.10;1.77;;;10.20;1.00;;;;;;5054119;28;20521;-68
2021/10/22 10:45:53;;;;;;;7.72;1.48;;;10.20;1.00;;;;;;5048871;28;20133;-68
2021/10/22 10:48:24;;;;;;;7.68;2.25;;;10.10;1.00;;;;;;5049384;28;20056;-70
2021/10/22 10:50:55;;;;;;;7.35;1.38;;;10.20;1.00;;;;;;5054245;28;20052;-68
2021/10/22 10:53:33;;;;;;;7.68;1.90;;;10.30;1.00;;;;;;5048575;28;20118;-68
2021/10/22 10:56:05;;;;;;;7.82;1.60;;;10.60;1.00;;;;;;5054219;28;20098;-68
2021/10/22 10:58:45;;;;;;;7.45;1.25;;;10.10;1.00;;;;;;5056154;28;20527;-69
2021/10/22 11:01:25;;;;;;;6.97;2.08;;;10.30;1.00;;;;;;5046354;28;20044;-68
2021/10/22 11:03:55;;;;;;;3.90;1.48;;;10.40;1.00;;;;;;5052983;28;20056;-68
2021/10/22 11:06:39;;;;;;;5.97;1.98;;;10.60;1.00;;;;;;5053639;28;20072;-69
2021/10/22 11:09:16;;;;;;;6.85;1.48;;;10.40;1.00;;;;;;5047717;28;20527;-68
2021/10/22 11:11:59;;;;;;;7.45;1.27;;;10.70;1.00;;;;;;5052045;28;20052;-69
2021/10/22 11:14:39;;;;;;;5.10;1.90;;;10.40;1.00;;;;;;5054213;28;20071;-69
2021/10/22 11:17:25;;;;;;;4.82;1.08;;;10.30;1.00;;;;;;5046918;28;20048;-68
2021/10/22 11:20:00;;;;;;;6.53;1.48;;;10.30;1.00;;;;;;5047877;28;20181;-69
2021/10/22 11:22:30;;;;;;;6.68;1.23;;;10.60;1.00;;;;;;5053916;28;20045;-68
2021/10/22 11:24:59;;;;;;;7.50;1.75;;;10.30;1.00;;;;;;5048970;28;20044;-67
2021/10/22 11:27:28;;;;;;;6.18;1.50;;;10.60;1.00;;;;;;5051478;28;20055;-68
2021/10/22 11:30:02;;;;;;;3.60;1.38;;;10.70;1.00;;;;;;5053915;28;20043;-68
2021/10/22 11:32:39;;;;;;;7.00;2.25;;;10.40;1.00;;;;;;5048295;28;20511;-68
2021/10/22 11:35:08;;;;;;;5.43;1.88;;;10.60;1.00;;;;;;5058037;28;20496;-69
2021/10/22 11:37:42;;;;;;;5.03;1.63;;;10.30;1.00;;;;;;5057382;28;20055;-69
2021/10/22 11:40:14;;;;;;;6.40;1.52;;;10.30;1.00;;;;;;5045977;28;20049;-69
2021/10/22 11:42:42;;;;;;;7.18;1.73;;;10.60;1.00;;;;;;5058089;28;20128;-69
2021/10/22 11:45:13;;;;;;;3.45;1.27;;;10.90;1.00;;;;;;5051731;28;21009;-69
2021/10/22 11:47:47;;;;;;;5.15;1.45;;;10.20;1.00;;;;;;5051176;28;20125;-68
2021/10/22 11:50:24;;;;;;;10.52;1.55;;;10.50;1.00;;;;;;5057030;28;20385;-68
2021/10/22 11:53:00;;;;;;;10.68;1.90;;;10.60;1.00;;;;;;5049969;28;20040;-68
2021/10/22 11:55:30;;;;;;;6.43;1.38;;;10.90;1.00;;;;;;5048747;28;20459;-69
2021/10/22 11:58:04;;;;;;;5.88;1.70;;;10.80;1.00;;;;;;5057902;28;20047;-69
2021/10/22 12:00:33;;;;;;;6.43;1.55;;;10.80;1.00;;;;;;5055886;28;20037;-69
2021/10/22 12:03:04;;;;;;;4.00;1.83;;;10.90;1.00;;;;;;5056389;28;20554;-68
2021/10/22 12:05:33;;;;;;;7.40;1.45;;;11.10;1.00;;;;;;5052457;28;20404;-70
2021/10/22 12:08:07;;;;;;;6.18;1.52;;;10.90;1.00;;;;;;5053692;28;20124;-69
2021/10/22 12:10:38;;;;;;;5.47;1.73;;;10.80;1.00;;;;;;5055131;28;20316;-68
2021/10/22 12:13:09;;;;;;;4.90;1.63;;;10.80;1.00;;;;;;5055170;28;20045;-69
2021/10/22 12:15:37;;;;;;;5.82;1.30;;;10.90;1.00;;;;;;5055484;28;20527;-69
2021/10/22 12:18:08;;;;;;;4.43;1.13;;;11.00;1.00;;;;;;5056826;28;20048;-69
2021/10/22 12:20:42;;;;;;;7.28;1.58;;;11.10;1.00;;;;;;5054954;28;20048;-67
2021/10/22 12:23:14;;;;;;;5.22;1.73;;;11.00;1.00;;;;;;5048064;28;20145;-68
2021/10/22 12:25:46;;;;;;;4.43;1.40;;;10.80;1.00;;;;;;5048221;28;20060;-70
2021/10/22 12:28:23;;;;;;;5.47;1.13;;;10.80;1.00;;;;;;5055227;28;20132;-71
2021/10/22 12:31:09;;;;;;;4.07;1.20;;;10.70;1.00;;;;;;5052724;28;20045;-69
2021/10/22 12:33:40;;;;;;;4.85;1.20;;;10.60;1.00;;;;;;5058098;28;20049;-70
2021/10/22 12:36:17;;;;;;;7.05;2.28;;;10.60;1.00;;;;;;5051613;28;20059;-70
2021/10/22 12:38:45;;;;;;;3.80;1.77;;;10.70;1.00;;;;;;5052913;28;20060;-68
2021/10/22 12:41:13;;;;;;;3.55;1.33;;;10.70;1.00;;;;;;5059407;28;20097;-69
2021/10/22 12:43:41;;;;;;;6.63;1.30;;;10.90;1.00;;;;;;5051903;28;20151;-68
2021/10/22 12:46:16;;;;;;;3.83;1.20;;;11.10;1.00;;;;;;5056567;28;20049;-68
2021/10/22 12:48:51;;;;;;;7.30;1.52;;;10.80;1.00;;;;;;5054478;28;20518;-69
2021/10/22 12:51:24;;;;;;;3.88;1.40;;;10.90;1.00;;;;;;5050615;28;20040;-70
2021/10/22 12:54:01;;;;;;;6.70;1.90;;;10.70;1.00;;;;;;5050288;28;20057;-70
2021/10/22 12:56:33;;;;;;;4.35;1.20;;;11.10;1.00;;;;;;5052669;28;20190;-69
2021/10/22 12:59:09;;;;;;;5.25;1.60;;;10.60;1.00;;;;;;5051037;28;20127;-68
2021/10/22 13:01:39;;;;;;;5.82;1.42;;;10.90;1.00;;;;;;5053569;28;20083;-69
2021/10/22 13:04:10;;;;;;;4.90;1.90;;;11.00;1.00;;;;;;5052396;28;20041;-69
2021/10/22 13:06:50;;;;;;;3.78;1.45;;;10.80;1.00;;;;;;5050868;28;20102;-68
2021/10/22 13:09:33;;;;;;;9.77;1.55;;;10.70;1.00;;;;;;5050701;28;20160;-69
2021/10/22 13:15:11;;;;;;;6.40;1.45;;;11.00;1.00;;;;;;5049079;28;20122;-67
2021/10/22 13:20:41;;;;;;;4.88;1.20;;;11.10;1.00;;;;;;5050357;28;20518;-69
2021/10/22 13:23:13;;;;;;;5.55;1.30;;;11.40;1.00;;;;;;5049690;28;20515;-69
2021/10/22 13:25:48;;;;;;;7.25;1.50;;;11.50;1.00;;;;;;5048801;28;20052;-69